Time;durP1;ratioP1;P1;durP2;ratioP2;P2;SDS_P1;SDS_P2;PMS_P1;PMS_P2;Temp;Humidity;BMP_temperature;BMP_pressure;BME280_temperature;BME280_humidity;BME280_pressure;Samples;Min_cycle;Max_cycle;Signal;HPM_P1;HPM_P2
2023/05/13 00:00:05;;;;;;;;;;;15.40;95.70;;;;;;5106164;28;20274;-71
2023/05/13 00:02:31;;;;;;;;;;;15.40;96.00;;;;;;5111143;27;19915;-71
2023/05/13 00:04:56;;;;;;;;;;;15.30;96.40;;;;;;5104558;27;20044;-69
2023/05/13 00:07:22;;;;;;;;;;;15.30;96.90;;;;;;5103179;28;19908;-69
2023/05/13 00:09:48;;;;;;;;;;;15.20;97.40;;;;;;5113926;27;19965;-71
2023/05/13 00:12:13;;;;;;;;;;;15.30;97.70;;;;;;5069287;28;19916;-70
2023/05/13 00:14:39;;;;;;;;;;;15.20;98.00;;;;;;5106140;28;20424;-69
2023/05/13 00:17:05;;;;;;;;;;;15.20;98.10;;;;;;5085166;28;19923;-70
2023/05/13 00:19:31;;;;;;;;;;;15.10;98.50;;;;;;5107360;28;20396;-71
2023/05/13 00:21:56;;;;;;;;;;;15.10;98.80;;;;;;5106292;28;19916;-69
2023/05/13 00:24:22;;;;;;;;;;;15.10;99.20;;;;;;5088688;28;19979;-69
2023/05/13 00:26:47;;;;;;;;;;;15.10;99.40;;;;;;5105459;28;20359;-69
2023/05/13 00:29:13;;;;;;;;;;;15.00;99.70;;;;;;5105993;28;19915;-69
2023/05/13 00:31:39;;;;;;;;;;;15.00;99.80;;;;;;5104459;28;19998;-71
2023/05/13 00:34:04;;;;;;;;;;;15.00;99.90;;;;;;5104646;28;19916;-71
2023/05/13 00:36:30;;;;;;;;;;;14.90;99.90;;;;;;5106772;28;19915;-69
2023/05/13 00:38:56;;;;;;;;;;;14.90;99.90;;;;;;5106641;28;19916;-70
2023/05/13 00:41:21;;;;;;;;;;;14.90;99.90;;;;;;5104877;28;19916;-69
2023/05/13 00:43:48;;;;;;;;;;;14.90;99.90;;;;;;5104711;28;19920;-69
2023/05/13 00:46:14;;;;;;;;;;;14.80;99.90;;;;;;5105789;28;19927;-71
2023/05/13 00:48:40;;;;;;;;;;;14.80;99.90;;;;;;5087906;28;20290;-71
2023/05/13 00:51:06;;;;;;;;;;;14.80;99.90;;;;;;5106441;28;19912;-69
2023/05/13 00:53:32;;;;;;;;;;;14.80;99.90;;;;;;5105951;28;19919;-69
2023/05/13 00:55:58;;;;;;;;;;;14.80;99.90;;;;;;5105477;28;20449;-71
2023/05/13 00:58:23;;;;;;;;;;;14.70;99.90;;;;;;5105320;28;19947;-70
2023/05/13 01:01:01;;;;;;;;;;;14.70;99.90;;;;;;5106616;28;19923;-71
2023/05/13 01:03:52;;;;;;;;;;;14.70;99.90;;;;;;5090012;28;19937;-70
2023/05/13 01:06:41;;;;;;;;;;;14.60;99.90;;;;;;5091669;28;20278;-71
2023/05/13 01:09:15;;;;;;;;;;;14.50;99.90;;;;;;5071696;28;20550;-71
2023/05/13 01:11:41;;;;;;;;;;;14.50;99.90;;;;;;5108309;28;19920;-71
2023/05/13 01:14:13;;;;;;;;;;;14.50;99.90;;;;;;5074408;28;19968;-70
2023/05/13 01:16:44;;;;;;;;;;;14.40;99.90;;;;;;5110578;28;20286;-71
2023/05/13 01:19:29;;;;;;;;;;;14.40;99.90;;;;;;5091289;28;19911;-71
2023/05/13 01:21:54;;;;;;;;;;;14.40;99.90;;;;;;5108250;28;19963;-71
2023/05/13 01:24:20;;;;;;;;;;;14.40;99.90;;;;;;5107724;28;19959;-71
2023/05/13 01:26:46;;;;;;;;;;;14.30;99.90;;;;;;5111518;28;19916;-70
2023/05/13 01:29:13;;;;;;;;;;;14.30;99.90;;;;;;5092328;28;19924;-71
2023/05/13 01:31:39;;;;;;;;;;;14.30;99.90;;;;;;5107405;27;20532;-73
2023/05/13 01:34:05;;;;;;;;;;;14.30;99.90;;;;;;5108287;28;20455;-71
2023/05/13 01:36:31;;;;;;;;;;;14.30;99.90;;;;;;5110644;28;19915;-69
2023/05/13 01:38:57;;;;;;;;;;;14.20;99.90;;;;;;5108694;28;19915;-71
2023/05/13 01:41:23;;;;;;;;;;;14.20;99.90;;;;;;5111466;28;19923;-71
2023/05/13 01:43:48;;;;;;;;;;;14.20;99.90;;;;;;5107546;28;19920;-71
2023/05/13 01:46:14;;;;;;;;;;;14.20;99.90;;;;;;5109731;28;19916;-69
2023/05/13 01:48:40;;;;;;;;;;;14.10;99.90;;;;;;5109508;28;20320;-70
2023/05/13 01:51:05;;;;;;;;;;;14.10;99.90;;;;;;5109669;28;19911;-71
2023/05/13 01:53:31;;;;;;;;;;;14.10;99.90;;;;;;5091455;28;20007;-71
2023/05/13 01:55:56;;;;;;;;;;;14.00;99.90;;;;;;5105915;28;19919;-69
2023/05/13 01:58:22;;;;;;;;;;;14.00;99.90;;;;;;5108794;28;19916;-71
2023/05/13 02:00:48;;;;;;;;;;;14.00;99.90;;;;;;5108388;27;19963;-72
2023/05/13 02:03:13;;;;;;;;;;;13.90;99.90;;;;;;5108297;28;19920;-69
2023/05/13 02:05:39;;;;;;;;;;;13.90;99.90;;;;;;5088031;28;19912;-71
2023/05/13 02:08:05;;;;;;;;;;;13.90;99.90;;;;;;5092137;28;20350;-70
2023/05/13 02:10:31;;;;;;;;;;;13.90;99.90;;;;;;5108509;28;19919;-69
2023/05/13 02:12:56;;;;;;;;;;;13.90;99.90;;;;;;5089591;28;19915;-68
2023/05/13 02:15:22;;;;;;;;;;;13.80;99.90;;;;;;5085488;28;19912;-70
2023/05/13 02:17:47;;;;;;;;;;;13.90;99.90;;;;;;5109552;28;20354;-71
2023/05/13 02:20:13;;;;;;;;;;;13.80;99.90;;;;;;5089792;28;19947;-69
2023/05/13 02:22:39;;;;;;;;;;;13.70;99.90;;;;;;5105578;28;20044;-70
2023/05/13 02:25:05;;;;;;;;;;;13.70;99.90;;;;;;5099933;28;19916;-69
2023/05/13 02:27:30;;;;;;;;;;;13.70;99.90;;;;;;5089114;28;19912;-71
2023/05/13 02:29:56;;;;;;;;;;;13.70;99.90;;;;;;5092264;28;19923;-69
2023/05/13 02:32:21;;;;;;;;;;;13.70;99.90;;;;;;5091259;28;20431;-68
2023/05/13 02:34:47;;;;;;;;;;;13.70;99.90;;;;;;5085845;28;19927;-69
2023/05/13 02:37:13;;;;;;;;;;;13.60;99.90;;;;;;5092059;28;19955;-69
2023/05/13 02:39:39;;;;;;;;;;;13.60;99.90;;;;;;5089147;28;20020;-69
2023/05/13 02:42:04;;;;;;;;;;;13.60;99.90;;;;;;5109756;28;19918;-69
2023/05/13 02:44:30;;;;;;;;;;;13.60;99.90;;;;;;5107939;28;19919;-72
2023/05/13 02:46:55;;;;;;;;;;;13.60;99.90;;;;;;5105503;28;19942;-70
2023/05/13 02:49:21;;;;;;;;;;;13.60;99.90;;;;;;5109434;28;20053;-71
2023/05/13 02:51:47;;;;;;;;;;;13.60;99.90;;;;;;5098738;27;19912;-71
2023/05/13 02:54:12;;;;;;;;;;;13.50;99.90;;;;;;5089090;28;20367;-70
2023/05/13 02:56:38;;;;;;;;;;;13.50;99.90;;;;;;5107223;28;19915;-70
2023/05/13 02:59:03;;;;;;;;;;;13.50;99.90;;;;;;5087497;28;19912;-69
2023/05/13 03:01:29;;;;;;;;;;;13.50;99.90;;;;;;5103265;27;19962;-69
2023/05/13 03:03:55;;;;;;;;;;;13.50;99.90;;;;;;5106550;28;20040;-71
2023/05/13 03:06:20;;;;;;;;;;;13.40;99.90;;;;;;5100565;28;20807;-72
2023/05/13 03:08:46;;;;;;;;;;;13.40;99.90;;;;;;5109809;28;19922;-70
2023/05/13 03:11:12;;;;;;;;;;;13.40;99.90;;;;;;5105418;28;19915;-70
2023/05/13 03:13:38;;;;;;;;;;;13.40;99.90;;;;;;5085094;28;19920;-71
2023/05/13 03:16:04;;;;;;;;;;;13.30;99.90;;;;;;5103381;28;20509;-72
2023/05/13 03:18:31;;;;;;;;;;;13.30;99.90;;;;;;5072646;28;19950;-73
2023/05/13 03:20:57;;;;;;;;;;;13.30;99.90;;;;;;5088613;28;20398;-71
2023/05/13 03:23:22;;;;;;;;;;;13.30;99.90;;;;;;5107961;28;19941;-69
2023/05/13 03:25:49;;;;;;;;;;;13.30;99.90;;;;;;5107977;28;19951;-70
2023/05/13 03:28:15;;;;;;;;;;;13.30;99.90;;;;;;5106764;28;19912;-69
2023/05/13 03:30:41;;;;;;;;;;;13.30;99.90;;;;;;5108640;28;19916;-72
2023/05/13 03:33:08;;;;;;;;;;;13.20;99.90;;;;;;5088204;28;20097;-70
2023/05/13 03:35:33;;;;;;;;;;;13.20;99.90;;;;;;5087487;28;19916;-70
2023/05/13 03:37:59;;;;;;;;;;;13.20;99.90;;;;;;5089771;28;19937;-71
2023/05/13 03:40:24;;;;;;;;;;;13.20;99.90;;;;;;5110152;28;19919;-69
2023/05/13 03:42:51;;;;;;;;;;;13.20;99.90;;;;;;5107812;28;19912;-71
2023/05/13 03:45:16;;;;;;;;;;;13.10;99.90;;;;;;5106630;28;19947;-70
2023/05/13 03:47:42;;;;;;;;;;;13.10;99.90;;;;;;5108187;28;20552;-71
2023/05/13 03:50:08;;;;;;;;;;;13.10;99.90;;;;;;5104950;28;19916;-69
2023/05/13 03:52:33;;;;;;;;;;;13.10;99.90;;;;;;5107977;27;20295;-70
2023/05/13 03:54:59;;;;;;;;;;;13.10;99.90;;;;;;5087459;28;19920;-71
2023/05/13 03:57:25;;;;;;;;;;;13.10;99.90;;;;;;5108314;28;20290;-69
2023/05/13 03:59:50;;;;;;;;;;;13.10;99.90;;;;;;5103529;28;19919;-69
2023/05/13 04:02:17;;;;;;;;;;;13.00;99.90;;;;;;5088528;28;19922;-71
2023/05/13 04:04:42;;;;;;;;;;;13.00;99.90;;;;;;5105403;28;19915;-71
2023/05/13 04:07:08;;;;;;;;;;;13.00;99.90;;;;;;5106558;28;19928;-70
2023/05/13 04:09:34;;;;;;;;;;;13.00;99.90;;;;;;5109345;27;19916;-70
2023/05/13 04:11:59;;;;;;;;;;;13.00;99.90;;;;;;5107620;28;19919;-72
2023/05/13 04:14:25;;;;;;;;;;;13.00;99.90;;;;;;5103013;27;19912;-69
2023/05/13 04:16:50;;;;;;;;;;;13.00;99.90;;;;;;5086456;28;20751;-70
2023/05/13 04:19:16;;;;;;;;;;;13.00;99.90;;;;;;5085181;28;19922;-69
2023/05/13 04:21:41;;;;;;;;;;;13.00;99.90;;;;;;5106616;28;20006;-71
2023/05/13 04:24:07;;;;;;;;;;;13.00;99.90;;;;;;5090364;28;20057;-70
2023/05/13 04:26:33;;;;;;;;;;;13.10;99.90;;;;;;5106290;27;19916;-69
2023/05/13 04:28:58;;;;;;;;;;;13.10;99.90;;;;;;5109569;28;19925;-69
2023/05/13 04:31:24;;;;;;;;;;;13.10;99.90;;;;;;5103175;28;19916;-71
2023/05/13 04:33:49;;;;;;;;;;;13.10;99.90;;;;;;5105246;28;19974;-70
2023/05/13 04:36:15;;;;;;;;;;;13.10;99.90;;;;;;5107849;28;20718;-71
2023/05/13 04:38:41;;;;;;;;;;;13.10;99.90;;;;;;5106518;28;19966;-69
2023/05/13 04:41:07;;;;;;;;;;;13.20;99.90;;;;;;5069228;28;20371;-70
2023/05/13 04:43:32;;;;;;;;;;;13.20;99.90;;;;;;5089636;28;19912;-71
2023/05/13 04:45:58;;;;;;;;;;;13.20;99.90;;;;;;5108186;28;19916;-70
2023/05/13 04:48:26;;;;;;;;;;;13.20;99.90;;;;;;5086625;28;20296;-70
2023/05/13 04:50:52;;;;;;;;;;;13.20;99.90;;;;;;5089889;28;19943;-71
2023/05/13 04:53:18;;;;;;;;;;;13.30;99.90;;;;;;5085945;28;19946;-71
2023/05/13 04:55:45;;;;;;;;;;;13.30;99.90;;;;;;5106980;28;19927;-70
2023/05/13 04:58:10;;;;;;;;;;;13.30;99.90;;;;;;5106062;28;20078;-69
2023/05/13 05:00:36;;;;;;;;;;;13.40;99.90;;;;;;5106955;28;20015;-71
2023/05/13 05:03:02;;;;;;;;;;;13.40;99.90;;;;;;5106686;28;20022;-71
2023/05/13 05:05:27;;;;;;;;;;;13.50;99.90;;;;;;5104321;28;20406;-70
2023/05/13 05:07:53;;;;;;;;;;;13.50;99.90;;;;;;5107384;28;19933;-70
2023/05/13 05:10:18;;;;;;;;;;;13.50;99.90;;;;;;5106107;28;19927;-69
2023/05/13 05:12:44;;;;;;;;;;;13.60;99.90;;;;;;5104469;28;19920;-71
2023/05/13 05:15:14;;;;;;;;;;;13.60;99.90;;;;;;5074912;28;19926;-71
2023/05/13 05:17:43;;;;;;;;;;;13.70;99.90;;;;;;5105461;28;19990;-71
2023/05/13 05:20:09;;;;;;;;;;;13.70;99.90;;;;;;5102779;28;19927;-72
2023/05/13 05:22:40;;;;;;;;;;;13.80;99.90;;;;;;5083280;28;20474;-71
2023/05/13 05:25:06;;;;;;;;;;;13.80;99.90;;;;;;5083663;28;19940;-70
2023/05/13 05:27:32;;;;;;;;;;;13.80;99.90;;;;;;5066756;28;19991;-71
2023/05/13 05:29:57;;;;;;;;;;;13.80;99.90;;;;;;5099774;28;20019;-70
2023/05/13 05:32:23;;;;;;;;;;;13.80;99.90;;;;;;5114944;28;19915;-71
2023/05/13 05:34:49;;;;;;;;;;;13.80;99.90;;;;;;5104516;28;19925;-73
2023/05/13 05:37:14;;;;;;;;;;;13.90;99.90;;;;;;5069260;28;19920;-70
2023/05/13 05:39:40;;;;;;;;;;;13.90;99.90;;;;;;5082075;28;19923;-71
2023/05/13 05:42:06;;;;;;;;;;;13.90;99.90;;;;;;5104062;28;19918;-71
2023/05/13 05:44:32;;;;;;;;;;;13.90;99.90;;;;;;5086451;28;19916;-71
2023/05/13 05:46:57;;;;;;;;;;;14.00;99.90;;;;;;5086655;28;19916;-72
2023/05/13 05:49:23;;;;;;;;;;;14.00;99.90;;;;;;5109909;28;20532;-70
2023/05/13 05:51:48;;;;;;;;;;;14.10;99.90;;;;;;5091403;28;20046;-71
2023/05/13 05:54:14;;;;;;;;;;;14.10;99.90;;;;;;5108788;28;19941;-69
2023/05/13 05:56:39;;;;;;;;;;;14.10;99.90;;;;;;5105252;28;19912;-69
2023/05/13 05:59:05;;;;;;;;;;;14.10;99.90;;;;;;5106384;27;19916;-70
2023/05/13 06:01:33;;;;;;;;;;;14.30;99.90;;;;;;5108877;27;19962;-71
2023/05/13 06:03:58;;;;;;;;;;;14.30;99.90;;;;;;5106518;27;19915;-71
2023/05/13 06:06:24;;;;;;;;;;;14.30;99.90;;;;;;5099147;28;19920;-69
2023/05/13 06:08:49;;;;;;;;;;;14.40;99.90;;;;;;5109183;28;19930;-71
2023/05/13 06:11:15;;;;;;;;;;;14.40;99.90;;;;;;5091618;28;19915;-71
2023/05/13 06:13:41;;;;;;;;;;;14.50;99.90;;;;;;5107546;28;19976;-71
2023/05/13 06:16:06;;;;;;;;;;;14.50;99.90;;;;;;5109129;27;19938;-71
2023/05/13 06:18:32;;;;;;;;;;;14.60;99.90;;;;;;5105543;28;20022;-71
2023/05/13 06:20:57;;;;;;;;;;;14.70;99.90;;;;;;5092289;28;19920;-71
2023/05/13 06:23:23;;;;;;;;;;;14.70;99.90;;;;;;5107515;28;19918;-70
2023/05/13 06:25:49;;;;;;;;;;;14.80;99.90;;;;;;5109718;28;20600;-70
2023/05/13 06:28:14;;;;;;;;;;;14.80;99.90;;;;;;5088005;28;19942;-71
2023/05/13 06:30:41;;;;;;;;;;;14.90;99.90;;;;;;5087578;28;19938;-71
2023/05/13 06:33:09;;;;;;;;;;;14.90;99.90;;;;;;5107140;28;19923;-71
2023/05/13 06:35:35;;;;;;;;;;;15.00;99.90;;;;;;5108121;28;19954;-73
2023/05/13 06:38:01;;;;;;;;;;;15.00;99.90;;;;;;5108000;28;19912;-70
2023/05/13 06:40:26;;;;;;;;;;;15.10;99.90;;;;;;5087593;28;19920;-70
2023/05/13 06:42:52;;;;;;;;;;;15.20;99.90;;;;;;5084238;28;19916;-72
2023/05/13 06:45:21;;;;;;;;;;;15.20;99.90;;;;;;5104086;28;20298;-72
2023/05/13 06:47:51;;;;;;;;;;;15.20;99.90;;;;;;5107651;28;19935;-72
2023/05/13 06:50:17;;;;;;;;;;;15.30;99.90;;;;;;5107169;28;20346;-72
2023/05/13 06:52:43;;;;;;;;;;;15.30;99.90;;;;;;5087006;28;19922;-72
2023/05/13 06:55:09;;;;;;;;;;;15.40;99.90;;;;;;5084334;28;19916;-70
2023/05/13 06:57:35;;;;;;;;;;;15.50;99.90;;;;;;5103037;27;19920;-71
2023/05/13 07:00:01;;;;;;;;;;;15.50;99.90;;;;;;5106297;27;20900;-70
2023/05/13 07:02:26;;;;;;;;;;;15.60;99.90;;;;;;5083954;28;20022;-70
2023/05/13 07:04:52;;;;;;;;;;;15.60;99.90;;;;;;5093999;27;20883;-71
2023/05/13 07:07:18;;;;;;;;;;;15.70;99.90;;;;;;5096339;27;20313;-69
2023/05/13 07:09:43;;;;;;;;;;;15.80;99.90;;;;;;5096399;27;21286;-70
2023/05/13 07:12:09;;;;;;;;;;;15.80;99.90;;;;;;5066785;28;20436;-73
2023/05/13 07:14:35;;;;;;;;;;;15.80;99.90;;;;;;5108912;27;19911;-71
2023/05/13 07:17:02;;;;;;;;;;;15.80;99.90;;;;;;5096309;27;20370;-71
2023/05/13 07:19:27;;;;;;;;;;;16.00;99.90;;;;;;5099153;27;19916;-71
2023/05/13 07:21:55;;;;;;;;;;;16.00;99.90;;;;;;5086151;28;22456;-72
2023/05/13 07:24:21;;;;;;;;;;;16.00;99.90;;;;;;5102804;27;19927;-73
2023/05/13 07:26:46;;;;;;;;;;;16.10;99.90;;;;;;5083090;27;20006;-70
2023/05/13 07:29:12;;;;;;;;;;;16.10;99.50;;;;;;5078276;28;19951;-71
2023/05/13 07:31:38;;;;;;;;;;;16.20;99.70;;;;;;5095718;27;19919;-71
2023/05/13 07:34:04;;;;;;;;;;;16.20;99.80;;;;;;5096654;28;20397;-71
2023/05/13 07:36:30;;;;;;;;;;;16.30;99.70;;;;;;5083393;27;19935;-70
2023/05/13 07:38:56;;;;;;;;;;;16.30;99.80;;;;;;5093237;27;20294;-71
2023/05/13 07:41:21;;;;;;;;;;;16.40;99.70;;;;;;5105645;28;20563;-71
2023/05/13 07:43:47;;;;;;;;;;;16.50;98.70;;;;;;5099780;28;19923;-71
2023/05/13 07:46:14;;;;;;;;;;;16.60;98.70;;;;;;5105652;28;20401;-71
2023/05/13 07:48:39;;;;;;;;;;;16.60;98.50;;;;;;5088095;28;19927;-70
2023/05/13 07:51:05;;;;;;;;;;;16.70;98.00;;;;;;5110577;28;19915;-71
2023/05/13 07:53:31;;;;;;;;;;;16.70;97.80;;;;;;5090555;28;19954;-70
2023/05/13 07:55:56;;;;;;;;;;;16.70;97.70;;;;;;5101137;28;19922;-70
2023/05/13 07:58:22;;;;;;;;;;;16.80;97.40;;;;;;5087682;28;20400;-70
2023/05/13 08:00:48;;;;;;;;;;;16.80;97.60;;;;;;5087757;28;19926;-70
2023/05/13 08:03:15;;;;;;;;;;;16.90;97.20;;;;;;5091169;28;19927;-70
2023/05/13 08:05:41;;;;;;;;;;;16.90;97.40;;;;;;5087022;28;19919;-72
2023/05/13 08:08:07;;;;;;;;;;;17.10;96.90;;;;;;5106814;28;19923;-70
2023/05/13 08:10:32;;;;;;;;;;;17.10;96.50;;;;;;5105344;28;19916;-71
2023/05/13 08:12:59;;;;;;;;;;;17.10;96.30;;;;;;5101839;28;19916;-70
2023/05/13 08:15:26;;;;;;;;;;;17.10;96.60;;;;;;5108595;28;19923;-70
2023/05/13 08:17:52;;;;;;;;;;;17.20;96.80;;;;;;5107003;28;19951;-72
2023/05/13 08:20:18;;;;;;;;;;;17.40;96.50;;;;;;5104021;28;19969;-71
2023/05/13 08:22:43;;;;;;;;;;;17.40;96.30;;;;;;5102469;28;20835;-72
2023/05/13 08:25:14;;;;;;;;;;;17.50;95.70;;;;;;5102825;27;19929;-71
2023/05/13 08:27:39;;;;;;;;;;;17.50;95.50;;;;;;5109998;28;19987;-70
2023/05/13 08:30:05;;;;;;;;;;;17.50;95.30;;;;;;5097588;28;20030;-69
2023/05/13 08:32:31;;;;;;;;;;;17.70;95.00;;;;;;5063681;28;19920;-72
2023/05/13 08:34:58;;;;;;;;;;;17.70;93.00;;;;;;5098648;28;19915;-71
2023/05/13 08:37:23;;;;;;;;;;;17.80;91.50;;;;;;5086738;28;19943;-72
2023/05/13 08:39:49;;;;;;;;;;;17.80;91.50;;;;;;5099018;28;20961;-70
2023/05/13 08:42:17;;;;;;;;;;;17.90;91.70;;;;;;5078912;27;19915;-74
2023/05/13 08:44:43;;;;;;;;;;;17.90;90.80;;;;;;5066880;28;21051;-74
2023/05/13 08:47:23;;;;;;;;;;;18.00;90.90;;;;;;5068723;28;19911;-74
2023/05/13 08:49:49;;;;;;;;;;;18.10;89.90;;;;;;5068366;28;20003;-73
2023/05/13 08:52:15;;;;;;;;;;;18.20;88.60;;;;;;5086545;28;19923;-73
2023/05/13 08:54:42;;;;;;;;;;;18.30;89.30;;;;;;5085811;28;19922;-76
2023/05/13 08:57:07;;;;;;;;;;;18.30;88.40;;;;;;5077528;28;19927;-75
2023/05/13 08:59:33;;;;;;;;;;;18.30;90.00;;;;;;5076705;28;19912;-72
2023/05/13 09:02:02;;;;;;;;;;;18.40;84.00;;;;;;5070375;28;20464;-73
2023/05/13 09:04:28;;;;;;;;;;;18.40;83.90;;;;;;5084500;28;19911;-71
2023/05/13 09:06:54;;;;;;;;;;;18.50;82.70;;;;;;5105527;28;19926;-77
2023/05/13 09:09:20;;;;;;;;;;;18.50;83.20;;;;;;5085198;28;19934;-71
2023/05/13 09:11:46;;;;;;;;;;;18.60;83.10;;;;;;5069520;28;20432;-71
2023/05/13 09:14:12;;;;;;;;;;;18.60;83.30;;;;;;5100927;28;20004;-70
2023/05/13 09:16:38;;;;;;;;;;;18.70;84.10;;;;;;5100729;28;19922;-70
2023/05/13 09:19:04;;;;;;;;;;;18.90;81.70;;;;;;5083444;28;20006;-70
2023/05/13 09:21:31;;;;;;;;;;;18.90;80.20;;;;;;5102880;28;19919;-71
2023/05/13 09:24:10;;;;;;;;;;;19.00;81.00;;;;;;5112994;28;19991;-70
2023/05/13 09:26:36;;;;;;;;;;;19.00;79.70;;;;;;5107804;27;20004;-72
2023/05/13 09:29:20;;;;;;;;;;;19.20;80.30;;;;;;5099346;28;20743;-70
2023/05/13 09:31:48;;;;;;;;;;;19.10;80.30;;;;;;5105168;28;19920;-69
2023/05/13 09:34:14;;;;;;;;;;;19.10;81.90;;;;;;5110264;27;20419;-71
2023/05/13 09:36:40;;;;;;;;;;;19.20;80.20;;;;;;5113661;27;19951;-71
2023/05/13 09:39:06;;;;;;;;;;;19.40;78.20;;;;;;5084931;28;19931;-72
2023/05/13 09:41:32;;;;;;;;;;;19.40;78.90;;;;;;5103768;28;20839;-71
2023/05/13 09:44:00;;;;;;;;;;;19.40;78.00;;;;;;5102945;27;20011;-72
2023/05/13 09:46:26;;;;;;;;;;;19.50;78.30;;;;;;5109287;27;19954;-71
2023/05/13 09:48:55;;;;;;;;;;;19.50;77.40;;;;;;5107327;27;19963;-71
2023/05/13 09:51:25;;;;;;;;;;;19.50;79.50;;;;;;5091560;28;19915;-72
2023/05/13 09:53:53;;;;;;;;;;;19.50;78.60;;;;;;5117609;27;19954;-72
2023/05/13 09:56:21;;;;;;;;;;;19.60;76.80;;;;;;5099048;27;20438;-71
2023/05/13 09:58:50;;;;;;;;;;;19.60;78.20;;;;;;5066121;28;19922;-71
2023/05/13 10:01:15;;;;;;;;;;;19.60;77.80;;;;;;5085682;28;20683;-71
2023/05/13 10:03:41;;;;;;;;;;;19.70;75.80;;;;;;5106209;27;19921;-71
2023/05/13 10:06:07;;;;;;;;;;;19.70;75.80;;;;;;5104440;27;20405;-70
2023/05/13 10:08:33;;;;;;;;;;;19.70;75.20;;;;;;5082892;27;20445;-72
2023/05/13 10:10:58;;;;;;;;;;;19.70;75.40;;;;;;5083967;28;20169;-72
2023/05/13 10:13:25;;;;;;;;;;;19.80;76.50;;;;;;5105619;27;19958;-72
2023/05/13 10:15:51;;;;;;;;;;;19.80;76.50;;;;;;5100835;27;19923;-72
2023/05/13 10:18:18;;;;;;;;;;;19.80;75.90;;;;;;5089271;28;19919;-72
2023/05/13 10:20:44;;;;;;;;;;;19.90;76.00;;;;;;5084912;27;19931;-72
2023/05/13 10:23:10;;;;;;;;;;;20.00;73.80;;;;;;5106329;28;19998;-72
2023/05/13 10:25:36;;;;;;;;;;;20.00;75.50;;;;;;5090494;28;19995;-69
2023/05/13 10:28:02;;;;;;;;;;;20.10;74.60;;;;;;5087992;28;19911;-70
2023/05/13 10:30:30;;;;;;;;;;;20.20;76.00;;;;;;5102143;27;20391;-70
2023/05/13 10:32:56;;;;;;;;;;;20.30;72.50;;;;;;5089950;28;20332;-70
2023/05/13 10:35:22;;;;;;;;;;;20.30;73.10;;;;;;5068146;28;20096;-69
2023/05/13 10:38:11;;;;;;;;;;;20.30;72.20;;;;;;5094471;28;19916;-71
2023/05/13 10:40:43;;;;;;;;;;;20.30;72.10;;;;;;5077072;28;19927;-70
2023/05/13 10:43:11;;;;;;;;;;;20.40;73.20;;;;;;5092216;28;20003;-70
2023/05/13 10:45:36;;;;;;;;;;;20.50;69.80;;;;;;5111510;22;19928;-70
2023/05/13 10:48:06;;;;;;;;;;;20.40;69.10;;;;;;5060488;28;19966;-70
2023/05/13 10:50:34;;;;;;;;;;;20.50;69.70;;;;;;5060263;28;20015;-69
2023/05/13 10:53:02;;;;;;;;;;;20.60;65.10;;;;;;5043482;28;20291;-68
2023/05/13 10:55:28;;;;;;;;;;;20.60;64.30;;;;;;5094614;28;20059;-68
2023/05/13 10:58:03;;;;;;;;;;;20.70;66.20;;;;;;5079591;28;20014;-68
2023/05/13 11:00:30;;;;;;;;;;;20.70;67.50;;;;;;5080089;28;19919;-68
2023/05/13 11:02:56;;;;;;;;;;;20.70;66.20;;;;;;5087432;28;20364;-68
2023/05/13 11:05:21;;;;;;;;;;;20.80;65.60;;;;;;5080185;28;20002;-68
2023/05/13 11:07:55;;;;;;;;;;;20.80;63.30;;;;;;5084309;28;20007;-68
2023/05/13 11:10:30;;;;;;;;;;;20.90;64.10;;;;;;5086863;28;20353;-68
2023/05/13 11:13:08;;;;;;;;;;;21.00;65.30;;;;;;5087816;28;20011;-65
2023/05/13 11:15:44;;;;;;;;;;;21.10;63.50;;;;;;5075173;28;20344;-66
2023/05/13 11:18:10;;;;;;;;;;;21.10;61.10;;;;;;5087513;28;19969;-67
2023/05/13 11:20:36;;;;;;;;;;;21.20;60.30;;;;;;5088591;28;19920;-67
2023/05/13 11:23:02;;;;;;;;;;;21.30;60.20;;;;;;5084492;28;19918;-68
2023/05/13 11:25:27;;;;;;;;;;;21.50;59.10;;;;;;5063940;28;19912;-68
2023/05/13 11:27:53;;;;;;;;;;;21.70;56.60;;;;;;5090124;28;19912;-67
2023/05/13 11:30:23;;;;;;;;;;;22.00;56.60;;;;;;5078129;28;19995;-67
2023/05/13 11:32:54;;;;;;;;;;;23.00;57.00;;;;;;5062353;28;20403;-67
2023/05/13 11:35:27;;;;;;;;;;;24.10;54.60;;;;;;5087950;28;20015;-67
2023/05/13 11:37:56;;;;;;;;;;;24.10;53.10;;;;;;5084840;28;19916;-68
2023/05/13 11:40:22;;;;;;;;;;;23.80;52.60;;;;;;5086437;28;19920;-68
2023/05/13 11:42:48;;;;;;;;;;;24.40;50.60;;;;;;5088299;28;19912;-66
2023/05/13 11:45:15;;;;;;;;;;;25.90;48.30;;;;;;5075306;28;19924;-67
2023/05/13 11:47:41;;;;;;;;;;;26.70;45.70;;;;;;5077754;28;19947;-68
2023/05/13 11:50:17;;;;;;;;;;;27.40;45.00;;;;;;5082533;28;20359;-65
2023/05/13 11:52:43;;;;;;;;;;;28.40;45.00;;;;;;5088336;28;19920;-66
2023/05/13 11:55:08;;;;;;;;;;;28.50;41.90;;;;;;5084668;28;20856;-69
2023/05/13 11:57:35;;;;;;;;;;;29.10;42.10;;;;;;5083859;28;20287;-68
2023/05/13 12:00:00;;;;;;;;;;;28.60;42.40;;;;;;5083613;28;19916;-68
2023/05/13 12:02:27;;;;;;;;;;;28.20;41.50;;;;;;5084265;28;19921;-67
2023/05/13 12:04:53;;;;;;;;;;;27.20;41.90;;;;;;5082380;28;19916;-68
2023/05/13 12:07:20;;;;;;;;;;;26.70;42.90;;;;;;5084861;28;19916;-68
2023/05/13 12:09:46;;;;;;;;;;;26.30;43.20;;;;;;5064343;28;19916;-67
2023/05/13 12:12:12;;;;;;;;;;;25.70;44.40;;;;;;5077767;28;19934;-71
2023/05/13 12:14:38;;;;;;;;;;;25.30;45.10;;;;;;5078420;28;20387;-71
2023/05/13 12:17:03;;;;;;;;;;;25.60;44.60;;;;;;5086538;28;19920;-74
2023/05/13 12:19:30;;;;;;;;;;;24.90;45.30;;;;;;5085411;28;20378;-70
2023/05/13 12:21:57;;;;;;;;;;;24.70;45.20;;;;;;5083968;28;20785;-71
2023/05/13 12:24:24;;;;;;;;;;;24.30;46.80;;;;;;5082745;28;20397;-70
2023/05/13 12:26:50;;;;;;;;;;;24.00;46.40;;;;;;5083634;28;19920;-69
2023/05/13 12:29:16;;;;;;;;;;;23.70;48.20;;;;;;5082985;28;19935;-70
2023/05/13 12:31:42;;;;;;;;;;;23.40;47.50;;;;;;5075647;28;19924;-71
2023/05/13 12:34:08;;;;;;;;;;;23.40;47.10;;;;;;5084729;28;19916;-69
2023/05/13 12:36:37;;;;;;;;;;;23.30;47.80;;;;;;5083514;28;19912;-69
2023/05/13 12:39:04;;;;;;;;;;;23.00;46.80;;;;;;5082676;28;19916;-68
2023/05/13 12:41:34;;;;;;;;;;;22.80;47.10;;;;;;5077019;28;19955;-68
2023/05/13 12:44:00;;;;;;;;;;;22.80;47.60;;;;;;5085582;28;19924;-69
2023/05/13 12:46:27;;;;;;;;;;;23.30;46.90;;;;;;5077006;28;20006;-69
2023/05/13 12:48:56;;;;;;;;;;;25.10;45.90;;;;;;5083719;28;20299;-69
2023/05/13 12:51:22;;;;;;;;;;;26.50;43.10;;;;;;5082208;28;19935;-68
2023/05/13 12:53:48;;;;;;;;;;;26.50;42.20;;;;;;5079063;28;19912;-68
2023/05/13 12:56:13;;;;;;;;;;;25.90;42.70;;;;;;5076873;28;19927;-70
2023/05/13 12:58:39;;;;;;;;;;;25.60;44.50;;;;;;5084116;28;20346;-69
2023/05/13 13:01:05;;;;;;;;;;;25.10;43.10;;;;;;5083438;28;19926;-70
2023/05/13 13:03:30;;;;;;;;;;;24.90;43.20;;;;;;5079576;28;19923;-69
2023/05/13 13:05:57;;;;;;;;;;;24.80;41.90;;;;;;5074245;28;19959;-68
2023/05/13 13:08:26;;;;;;;;;;;24.80;41.30;;;;;;5084830;28;19918;-69
2023/05/13 13:10:51;;;;;;;;;;;24.70;42.60;;;;;;5077323;28;19920;-68
2023/05/13 13:13:17;;;;;;;;;;;24.10;42.20;;;;;;5081869;28;20342;-68
2023/05/13 13:15:42;;;;;;;;;;;23.80;41.60;;;;;;5080320;28;19919;-74
2023/05/13 13:18:08;;;;;;;;;;;23.50;42.50;;;;;;5085640;28;20359;-69
2023/05/13 13:20:34;;;;;;;;;;;23.30;43.30;;;;;;5076791;28;20380;-68
2023/05/13 13:23:00;;;;;;;;;;;23.00;43.00;;;;;;5082885;28;19962;-67
2023/05/13 13:25:27;;;;;;;;;;;23.10;43.30;;;;;;5079318;28;20415;-67
2023/05/13 13:27:53;;;;;;;;;;;23.90;43.30;;;;;;5057562;28;19966;-67
2023/05/13 13:30:19;;;;;;;;;;;26.00;42.00;;;;;;5082011;28;19963;-68
2023/05/13 13:32:44;;;;;;;;;;;28.10;38.10;;;;;;5075938;28;19974;-68
2023/05/13 13:35:10;;;;;;;;;;;29.90;37.30;;;;;;5085428;28;19938;-68
2023/05/13 13:37:36;;;;;;;;;;;31.50;35.20;;;;;;5085202;28;20444;-68
2023/05/13 13:40:01;;;;;;;;;;;32.30;33.40;;;;;;5081133;28;19993;-68
2023/05/13 13:42:27;;;;;;;;;;;33.00;32.80;;;;;;5071648;28;19920;-68
2023/05/13 13:44:52;;;;;;;;;;;34.10;32.70;;;;;;5076981;28;19915;-67
2023/05/13 13:47:18;;;;;;;;;;;34.10;30.40;;;;;;5078510;28;19923;-68
2023/05/13 13:49:43;;;;;;;;;;;34.40;30.60;;;;;;5081838;28;19916;-68
2023/05/13 13:52:09;;;;;;;;;;;34.90;30.70;;;;;;5084923;28;19920;-69
2023/05/13 13:54:35;;;;;;;;;;;35.40;30.70;;;;;;5081521;28;20379;-68
2023/05/13 13:57:00;;;;;;;;;;;35.50;29.80;;;;;;5074630;28;20318;-69
2023/05/13 13:59:26;;;;;;;;;;;35.40;29.00;;;;;;5086855;28;19916;-70
2023/05/13 14:01:52;;;;;;;;;;;35.20;28.80;;;;;;5081016;28;20340;-70
2023/05/13 14:04:19;;;;;;;;;;;33.20;29.50;;;;;;5083034;28;20403;-69
2023/05/13 14:06:45;;;;;;;;;;;31.20;29.60;;;;;;5073932;28;19920;-69
2023/05/13 14:09:11;;;;;;;;;;;29.70;31.20;;;;;;5086034;28;19919;-68
2023/05/13 14:11:36;;;;;;;;;;;28.40;32.30;;;;;;5079641;28;19916;-69